Time;durP1;ratioP1;P1;durP2;ratioP2;P2;SDS_P1;SDS_P2;PMS_P1;PMS_P2;Temp;Humidity;BMP_temperature;BMP_pressure;BME280_temperature;BME280_humidity;BME280_pressure;Samples;Min_cycle;Max_cycle;Signal;HPM_P1;HPM_P2
2023/05/16 00:00:34;;;;;;;8.98;3.60;;;;;;;11.85;95.28;100408.09;5148172;28;20382;-70
2023/05/16 00:03:05;;;;;;;6.65;3.47;;;;;;;11.88;95.61;100410.59;5152223;28;20249;-72
2023/05/16 00:05:35;;;;;;;8.68;3.65;;;;;;;11.97;95.55;100414.56;5156735;23;20055;-75
2023/05/16 00:08:05;;;;;;;5.80;3.55;;;;;;;11.94;94.15;100410.31;5133400;28;20037;-76
2023/05/16 00:10:36;;;;;;;5.13;3.10;;;;;;;11.98;93.18;100411.88;5124632;28;20035;-77
2023/05/16 00:13:06;;;;;;;6.70;3.42;;;;;;;12.02;93.33;100410.84;5127712;28;20326;-75
2023/05/16 00:15:37;;;;;;;5.68;3.28;;;;;;;11.89;93.26;100414.91;5122424;28;20489;-75
2023/05/16 00:18:08;;;;;;;8.48;3.40;;;;;;;11.94;92.93;100412.91;5126662;28;20067;-76
2023/05/16 00:20:40;;;;;;;5.30;3.05;;;;;;;11.87;93.00;100418.50;5123766;28;20352;-76
2023/05/16 00:23:10;;;;;;;7.65;3.22;;;;;;;11.82;93.76;100423.09;5128018;28;20030;-77
2023/05/16 00:25:41;;;;;;;6.65;3.75;;;;;;;11.98;93.54;100426.75;5123264;28;20065;-76
2023/05/16 00:28:11;;;;;;;5.50;3.38;;;;;;;11.87;93.40;100421.97;5126096;28;20400;-75
2023/05/16 00:30:41;;;;;;;10.05;3.22;;;;;;;11.85;93.47;100425.56;5123319;28;20188;-76
2023/05/16 00:33:12;;;;;;;8.63;3.38;;;;;;;12.00;94.08;100436.25;5127172;28;20030;-75
2023/05/16 00:35:42;;;;;;;4.35;2.92;;;;;;;11.99;93.49;100426.66;5123520;28;20766;-75
2023/05/16 00:38:12;;;;;;;5.88;2.60;;;;;;;11.85;92.44;100433.41;5126523;28;20023;-75
2023/05/16 00:40:42;;;;;;;5.15;1.98;;;;;;;11.75;91.69;100432.97;5125243;28;20619;-74
2023/05/16 00:43:13;;;;;;;4.10;2.10;;;;;;;11.74;91.69;100436.50;5128779;28;20038;-75
2023/05/16 00:45:44;;;;;;;3.13;1.80;;;;;;;11.83;92.20;100430.88;5121728;28;20027;-74
2023/05/16 00:48:14;;;;;;;3.83;1.95;;;;;;;11.65;91.75;100439.50;5126871;28;20026;-73
2023/05/16 00:50:46;;;;;;;8.82;1.90;;;;;;;11.71;91.79;100431.41;5123613;28;20089;-76
2023/05/16 00:53:16;;;;;;;2.95;1.70;;;;;;;11.77;92.22;100432.91;5124806;28;20444;-75
2023/05/16 00:55:47;;;;;;;4.28;1.60;;;;;;;11.89;91.68;100435.00;5125381;28;20035;-75
2023/05/16 00:58:18;;;;;;;5.47;1.80;;;;;;;11.77;91.98;100451.25;5110258;28;20074;-75
2023/05/16 01:00:48;;;;;;;2.20;1.50;;;;;;;11.80;91.14;100440.63;5121992;28;20045;-74
2023/05/16 01:03:19;;;;;;;4.55;1.60;;;;;;;11.82;90.63;100437.00;5127384;28;20030;-77
2023/05/16 01:05:49;;;;;;;7.03;1.77;;;;;;;11.78;91.97;100447.72;5130265;28;20054;-75
2023/05/16 01:08:20;;;;;;;2.30;1.30;;;;;;;11.91;91.12;100454.97;5128668;28;20030;-75
2023/05/16 01:11:02;;;;;;;5.20;1.70;;;;;;;12.03;91.42;100453.56;5126026;28;20031;-77
2023/05/16 01:13:45;;;;;;;4.53;1.70;;;;;;;12.02;91.30;100454.50;5127455;28;20031;-76
2023/05/16 01:16:24;;;;;;;4.30;2.47;;;;;;;12.01;91.74;100453.66;5125201;28;20587;-76
2023/05/16 01:19:22;;;;;;;3.25;1.90;;;;;;;11.91;92.71;100454.09;5112035;28;20027;-75
2023/05/16 01:22:01;;;;;;;5.68;1.85;;;;;;;11.94;93.65;100449.59;5124883;28;20366;-76
2023/05/16 01:24:55;;;;;;;4.13;1.83;;;;;;;11.96;93.50;100446.91;5125135;28;20031;-74
2023/05/16 01:27:26;;;;;;;4.55;1.60;;;;;;;11.98;93.42;100451.16;5114004;28;20046;-71
2023/05/16 01:29:57;;;;;;;4.78;1.70;;;;;;;11.96;92.93;100447.75;5121451;28;20035;-74
2023/05/16 01:32:27;;;;;;;5.07;1.98;;;;;;;11.83;94.20;100443.97;5124830;28;20101;-74
2023/05/16 01:34:57;;;;;;;4.20;1.73;;;;;;;11.75;94.63;100446.06;5124775;28;20302;-73
2023/05/16 01:37:37;;;;;;;2.72;1.50;;;;;;;11.85;94.48;100439.53;5138549;28;20042;-76
2023/05/16 01:40:30;;;;;;;4.03;1.67;;;;;;;11.78;95.05;100442.47;5142861;28;20031;-76
2023/05/16 01:43:07;;;;;;;4.07;2.15;;;;;;;11.77;95.80;100440.78;5124260;28;20540;-75
2023/05/16 01:45:46;;;;;;;6.13;1.98;;;;;;;11.78;95.62;100437.22;5123210;28;20539;-76
2023/05/16 01:48:21;;;;;;;6.65;2.20;;;;;;;11.85;95.73;100441.28;5125210;28;20539;-75
2023/05/16 01:50:56;;;;;;;3.90;2.05;;;;;;;11.83;96.42;100445.72;5125284;28;20047;-76
2023/05/16 01:53:37;;;;;;;5.70;2.30;;;;;;;11.81;96.81;100443.16;5124429;28;20485;-75
2023/05/16 01:56:14;;;;;;;4.35;1.73;;;;;;;11.87;97.11;100447.28;5126708;28;20047;-75
2023/05/16 01:58:46;;;;;;;5.47;2.03;;;;;;;11.83;97.29;100438.75;5124357;28;20034;-76
2023/05/16 02:01:16;;;;;;;4.30;2.08;;;;;;;11.78;97.40;100453.78;5124019;28;20169;-76
2023/05/16 02:03:46;;;;;;;3.35;1.75;;;;;;;11.85;96.85;100455.25;5121618;28;20325;-76
2023/05/16 02:06:16;;;;;;;5.65;1.40;;;;;;;11.84;97.05;100463.16;5135481;28;20042;-75
2023/05/16 02:08:47;;;;;;;3.53;1.38;;;;;;;11.80;97.28;100469.44;5119330;28;20393;-76
2023/05/16 02:11:18;;;;;;;4.10;1.70;;;;;;;11.84;96.91;100471.88;5124415;28;20065;-75
2023/05/16 02:13:48;;;;;;;2.50;1.45;;;;;;;11.82;97.68;100471.06;5120824;28;20150;-73
2023/05/16 02:16:18;;;;;;;4.43;1.75;;;;;;;11.82;97.77;100481.53;5120789;28;20034;-73
2023/05/16 02:18:49;;;;;;;3.55;1.50;;;;;;;11.90;98.00;100471.59;5122643;28;20110;-73
2023/05/16 02:21:19;;;;;;;4.03;1.70;;;;;;;11.86;96.92;100470.03;5140237;28;20440;-76
2023/05/16 02:23:49;;;;;;;5.35;1.60;;;;;;;11.86;96.73;100472.66;5121842;28;20346;-76
2023/05/16 02:26:20;;;;;;;3.88;1.70;;;;;;;11.75;98.17;100482.72;5141789;28;20101;-72
2023/05/16 02:28:51;;;;;;;2.38;1.40;;;;;;;11.77;98.82;100482.66;5122055;28;20033;-76
2023/05/16 02:31:29;;;;;;;2.92;1.98;;;;;;;11.69;98.74;100479.50;5127329;28;20023;-76
2023/05/16 02:34:00;;;;;;;5.90;1.60;;;;;;;11.74;98.00;100478.41;5127368;28;20171;-74
2023/05/16 02:36:30;;;;;;;4.68;1.85;;;;;;;11.71;98.96;100480.28;5121814;28;20027;-73
2023/05/16 02:39:02;;;;;;;5.30;2.00;;;;;;;11.74;98.51;100475.78;5119203;28;20034;-74
2023/05/16 02:41:33;;;;;;;3.53;1.85;;;;;;;11.77;98.89;100478.25;5124554;28;20058;-72
2023/05/16 02:44:03;;;;;;;5.72;1.90;;;;;;;11.72;99.70;100484.59;5123717;28;20061;-76
2023/05/16 02:46:34;;;;;;;2.90;1.65;;;;;;;11.77;99.36;100488.72;5121885;28;20155;-74
2023/05/16 02:49:04;;;;;;;3.70;1.90;;;;;;;11.87;100.00;100486.56;5136354;28;20035;-76
2023/05/16 02:51:34;;;;;;;4.50;2.35;;;;;;;11.87;99.25;100486.56;5120429;28;20019;-72
2023/05/16 02:54:08;;;;;;;6.57;2.00;;;;;;;11.91;99.28;100493.38;5141265;28;20030;-75
2023/05/16 02:56:38;;;;;;;5.65;1.55;;;;;;;11.76;98.99;100492.25;5120507;28;20471;-75
2023/05/16 02:59:10;;;;;;;3.33;1.60;;;;;;;11.77;98.63;100493.97;5123664;28;20019;-76
2023/05/16 03:01:40;;;;;;;3.90;1.48;;;;;;;11.85;98.44;100498.88;5125927;28;20031;-75
2023/05/16 03:04:11;;;;;;;3.33;1.50;;;;;;;11.90;97.74;100500.41;5124922;28;20034;-75
2023/05/16 03:06:41;;;;;;;5.05;1.70;;;;;;;11.98;97.53;100503.53;5122676;28;20043;-75
2023/05/16 03:09:11;;;;;;;2.97;1.52;;;;;;;11.92;97.27;100506.41;5129684;28;20199;-77
2023/05/16 03:11:42;;;;;;;5.35;1.55;;;;;;;11.97;96.57;100504.44;5123284;28;20489;-77
2023/05/16 03:14:12;;;;;;;7.18;1.38;;;;;;;11.90;96.67;100504.78;5125916;28;20027;-76
2023/05/16 03:16:43;;;;;;;6.10;2.03;;;;;;;11.81;96.70;100492.09;5126245;28;20100;-75
2023/05/16 03:19:13;;;;;;;2.40;1.17;;;;;;;11.93;97.08;100491.56;5127753;28;20393;-76
2023/05/16 03:21:44;;;;;;;3.58;1.45;;;;;;;11.96;96.97;100486.19;5125930;28;20035;-75
2023/05/16 03:24:14;;;;;;;2.67;1.40;;;;;;;11.98;95.94;100486.97;5129374;28;20037;-74
2023/05/16 03:26:45;;;;;;;4.53;1.42;;;;;;;11.89;96.27;100493.47;5127178;28;20425;-77
2023/05/16 03:29:15;;;;;;;4.63;1.50;;;;;;;11.95;97.09;100493.19;5128167;28;20025;-75
2023/05/16 03:31:45;;;;;;;4.00;2.05;;;;;;;12.03;96.66;100495.50;5126105;28;20027;-76
2023/05/16 03:34:16;;;;;;;3.65;1.35;;;;;;;11.95;96.51;100498.44;5129204;28;20444;-76
2023/05/16 03:36:48;;;;;;;3.45;1.25;;;;;;;12.01;97.00;100498.19;5126165;28;20485;-76
2023/05/16 03:39:18;;;;;;;2.92;1.25;;;;;;;12.08;96.74;100504.84;5128383;28;20038;-75
2023/05/16 03:41:49;;;;;;;4.57;1.50;;;;;;;11.89;97.18;100492.59;5127380;28;20034;-73
2023/05/16 03:44:19;;;;;;;3.03;1.10;;;;;;;12.06;97.55;100505.84;5125566;28;20516;-75
2023/05/16 03:46:50;;;;;;;4.53;1.38;;;;;;;12.01;96.36;100503.44;5125376;28;20100;-74
2023/05/16 03:49:27;;;;;;;6.20;1.40;;;;;;;11.95;97.63;100503.66;5130888;28;20679;-76
2023/05/16 03:51:57;;;;;;;7.60;2.70;;;;;;;11.90;98.89;100505.63;5129892;28;20031;-75
2023/05/16 03:54:28;;;;;;;4.30;1.30;;;;;;;11.98;99.68;100508.78;5142219;28;20040;-76
2023/05/16 03:56:58;;;;;;;1.95;1.35;;;;;;;11.87;100.00;100508.41;5128565;28;20131;-75
2023/05/16 03:59:28;;;;;;;4.40;1.30;;;;;;;11.95;100.00;100515.94;5127826;28;20031;-75
2023/05/16 04:01:58;;;;;;;4.38;1.30;;;;;;;11.97;100.00;100516.72;5129775;28;20470;-75
2023/05/16 04:04:29;;;;;;;2.97;1.27;;;;;;;11.87;100.00;100518.00;5126065;28;20034;-75
2023/05/16 04:07:00;;;;;;;3.42;1.10;;;;;;;11.84;100.00;100513.75;5126348;28;20086;-76
2023/05/16 04:09:31;;;;;;;2.70;1.08;;;;;;;11.74;100.00;100525.53;5126678;28;20034;-73
2023/05/16 04:12:02;;;;;;;3.30;1.40;;;;;;;11.76;100.00;100531.53;5124214;28;20440;-75
2023/05/16 04:14:33;;;;;;;4.25;1.42;;;;;;;11.69;100.00;100532.72;5132854;28;20113;-75
2023/05/16 04:17:04;;;;;;;2.70;1.10;;;;;;;11.74;100.00;100535.13;5124399;28;20027;-76
2023/05/16 04:19:34;;;;;;;3.60;1.00;;;;;;;11.79;100.00;100544.50;5123299;28;20034;-73
2023/05/16 04:22:06;;;;;;;7.25;1.20;;;;;;;11.67;100.00;100541.53;5126065;28;20035;-71
2023/05/16 04:24:36;;;;;;;2.30;1.40;;;;;;;11.61;100.00;100534.78;5128735;28;20031;-74
2023/05/16 04:27:11;;;;;;;4.32;1.27;;;;;;;11.53;100.00;100547.31;5128589;28;20540;-76
2023/05/16 04:29:41;;;;;;;4.30;1.45;;;;;;;11.52;100.00;100557.81;5123074;28;20405;-73
2023/05/16 04:32:11;;;;;;;8.10;1.55;;;;;;;11.51;100.00;100556.13;5129222;28;20027;-75
2023/05/16 04:34:43;;;;;;;3.33;1.42;;;;;;;11.38;100.00;100560.13;5130236;28;20042;-72
2023/05/16 04:37:13;;;;;;;6.00;1.30;;;;;;;11.49;100.00;100569.28;5125938;28;20061;-72
2023/05/16 04:39:43;;;;;;;4.93;1.13;;;;;;;11.65;100.00;100570.38;5125229;28;20058;-74
2023/05/16 04:42:13;;;;;;;3.42;1.10;;;;;;;11.64;100.00;100567.84;5129616;28;20027;-77
2023/05/16 04:44:44;;;;;;;3.15;1.00;;;;;;;11.78;100.00;100561.13;5124081;28;20059;-75
2023/05/16 04:47:14;;;;;;;2.83;0.80;;;;;;;11.74;100.00;100562.19;5127499;28;20035;-71
2023/05/16 04:49:44;;;;;;;7.00;1.90;;;;;;;11.75;100.00;100573.50;5127561;28;20038;-76
2023/05/16 04:52:15;;;;;;;2.67;0.82;;;;;;;11.73;100.00;100576.19;5127618;28;20030;-77
2023/05/16 04:54:45;;;;;;;3.50;1.10;;;;;;;11.75;100.00;100579.59;5123749;28;20054;-75
2023/05/16 04:57:16;;;;;;;2.40;0.90;;;;;;;11.91;100.00;100577.19;5126459;28;20089;-75
2023/05/16 04:59:46;;;;;;;4.72;0.93;;;;;;;11.95;99.93;100592.72;5122022;28;20561;-75
2023/05/16 05:02:16;;;;;;;4.55;0.85;;;;;;;11.89;99.66;100582.50;5126754;28;20077;-76
2023/05/16 05:04:49;;;;;;;5.38;0.90;;;;;;;11.90;99.58;100580.72;5124555;28;20075;-71
2023/05/16 05:07:19;;;;;;;2.88;1.02;;;;;;;11.94;98.76;100579.72;5122766;28;20105;-75
2023/05/16 05:09:51;;;;;;;1.77;0.70;;;;;;;12.01;99.56;100582.00;5122546;28;20118;-76
2023/05/16 05:12:22;;;;;;;2.17;0.90;;;;;;;12.08;98.83;100578.22;5129679;28;20528;-76
2023/05/16 05:14:52;;;;;;;4.30;0.82;;;;;;;12.09;97.88;100585.16;5120169;28;20174;-77
2023/05/16 05:17:22;;;;;;;7.50;0.95;;;;;;;12.12;97.86;100582.41;5140026;28;20395;-75
2023/05/16 05:19:53;;;;;;;2.58;0.75;;;;;;;12.02;96.41;100586.34;5119183;28;20397;-76
2023/05/16 05:22:23;;;;;;;2.67;0.88;;;;;;;12.27;96.50;100583.53;5128202;28;20137;-73
2023/05/16 05:24:53;;;;;;;2.83;0.80;;;;;;;12.46;95.23;100593.16;5123172;28;20081;-71
2023/05/16 05:27:24;;;;;;;3.13;0.80;;;;;;;12.54;95.15;100591.06;5123675;28;20039;-72
2023/05/16 05:29:54;;;;;;;2.13;0.77;;;;;;;12.82;93.72;100604.66;5121644;28;20089;-76
2023/05/16 05:32:25;;;;;;;5.68;0.80;;;;;;;12.86;92.86;100605.38;5130948;28;20053;-75
2023/05/16 05:34:55;;;;;;;2.20;0.90;;;;;;;12.89;92.97;100601.72;5125916;28;20035;-76
2023/05/16 05:37:25;;;;;;;6.22;1.00;;;;;;;12.81;92.60;100605.59;5126256;28;20030;-76
2023/05/16 05:39:56;;;;;;;4.22;0.98;;;;;;;12.78;92.66;100603.09;5122327;28;20089;-76
2023/05/16 05:42:26;;;;;;;7.00;0.93;;;;;;;12.57;92.85;100617.16;5124891;28;20106;-76
2023/05/16 05:44:56;;;;;;;4.30;0.85;;;;;;;12.71;92.89;100613.94;5124099;28;20035;-75
2023/05/16 05:47:27;;;;;;;3.28;1.00;;;;;;;12.77;93.06;100626.78;5118028;28;20027;-75
2023/05/16 05:49:58;;;;;;;2.88;0.70;;;;;;;12.66;92.48;100626.41;5124007;28;20063;-75
2023/05/16 05:52:28;;;;;;;8.60;1.10;;;;;;;12.49;93.05;100627.09;5125012;28;20125;-75
2023/05/16 05:54:58;;;;;;;6.30;1.45;;;;;;;12.40;94.67;100630.13;5124759;28;20113;-76
2023/05/16 05:57:29;;;;;;;6.68;0.95;;;;;;;12.11;98.16;100640.13;5121711;28;20093;-77
2023/05/16 05:59:59;;;;;;;7.60;0.93;;;;;;;11.95;100.00;100639.88;5124132;28;20055;-75
2023/05/16 06:02:30;;;;;;;3.10;0.90;;;;;;;11.76;100.00;100654.59;5139906;28;20497;-76
2023/05/16 06:07:34;;;;;;;7.90;1.17;;;;;;;11.39;100.00;100664.75;5163494;28;20057;-73
2023/05/16 06:10:07;;;;;;;6.07;1.35;;;;;;;11.44;100.00;100669.81;5165307;28;20026;-73
2023/05/16 06:12:37;;;;;;;6.95;0.88;;;;;;;11.52;100.00;100675.59;5170179;28;20451;-73
2023/05/16 06:15:09;;;;;;;4.22;0.85;;;;;;;11.50;100.00;100683.53;5173440;28;20121;-73
2023/05/16 06:17:39;;;;;;;7.45;1.63;;;;;;;11.51;100.00;100685.22;5173263;28;20029;-74
2023/05/16 06:20:10;;;;;;;9.00;1.15;;;;;;;11.50;100.00;100682.66;5165206;28;20033;-74
2023/05/16 06:22:40;;;;;;;11.18;1.10;;;;;;;11.60;98.63;100691.91;5163750;28;20124;-72
2023/05/16 06:25:10;;;;;;;4.22;1.00;;;;;;;11.68;96.97;100695.94;5168794;28;20406;-72
2023/05/16 06:27:41;;;;;;;3.53;0.70;;;;;;;11.70;97.59;100696.75;5167635;28;20030;-72
2023/05/16 06:30:11;;;;;;;6.15;1.10;;;;;;;11.80;96.65;100703.31;5169977;28;20120;-72
2023/05/16 06:32:41;;;;;;;8.52;1.83;;;;;;;11.66;95.54;100699.53;5165631;28;20043;-73
2023/05/16 06:35:12;;;;;;;7.82;1.63;;;;;;;11.74;94.66;100707.94;5171237;28;20022;-72
2023/05/16 06:37:42;;;;;;;5.38;1.00;;;;;;;11.78;93.59;100710.38;5170494;28;20884;-75
2023/05/16 06:40:13;;;;;;;7.32;1.30;;;;;;;11.78;93.03;100715.63;5169861;28;20148;-72
2023/05/16 06:42:43;;;;;;;12.25;1.63;;;;;;;11.72;91.61;100721.09;5167259;28;20042;-73
2023/05/16 06:45:13;;;;;;;8.77;1.23;;;;;;;11.97;90.76;100714.00;5171949;28;20377;-75
2023/05/16 06:47:44;;;;;;;16.50;1.70;;;;;;;12.03;89.98;100710.28;5168292;28;20435;-73
2023/05/16 06:50:14;;;;;;;9.50;1.33;;;;;;;12.13;87.70;100712.47;5172488;28;20488;-73
2023/05/16 06:52:44;;;;;;;6.80;1.00;;;;;;;12.12;86.27;100710.78;5165833;28;20034;-73
2023/05/16 06:55:15;;;;;;;12.85;1.20;;;;;;;12.19;86.35;100708.75;5160472;28;20057;-73
2023/05/16 06:57:46;;;;;;;6.63;1.48;;;;;;;12.39;86.25;100720.16;5166168;28;20113;-74
2023/05/16 07:00:17;;;;;;;5.55;1.20;;;;;;;12.34;84.71;100727.38;5165674;28;20089;-73
2023/05/16 07:02:48;;;;;;;13.50;1.42;;;;;;;12.35;84.09;100723.84;5170822;28;20029;-72
2023/05/16 07:05:18;;;;;;;9.40;1.10;;;;;;;12.43;82.99;100723.53;5164952;28;20026;-73
2023/05/16 07:07:48;;;;;;;7.97;0.93;;;;;;;12.44;82.44;100728.69;5167109;28;20061;-73
2023/05/16 07:10:19;;;;;;;7.30;0.75;;;;;;;12.46;81.47;100729.47;5162832;28;20053;-73
2023/05/16 07:12:50;;;;;;;8.88;1.17;;;;;;;12.46;80.58;100731.25;5161312;28;20031;-72
2023/05/16 07:15:20;;;;;;;6.57;1.05;;;;;;;12.43;79.35;100734.84;5157459;28;20567;-73
2023/05/16 07:17:50;;;;;;;9.15;0.95;;;;;;;12.61;79.76;100728.84;5160351;28;20085;-73
2023/05/16 07:20:21;;;;;;;11.35;1.00;;;;;;;12.51;77.43;100732.78;5166420;28;20049;-74
2023/05/16 07:22:51;;;;;;;10.82;1.38;;;;;;;12.79;76.86;100727.25;5165000;28;20141;-72
2023/05/16 07:25:22;;;;;;;6.70;0.90;;;;;;;12.87;76.37;100733.00;5168407;28;20074;-74
2023/05/16 07:27:53;;;;;;;6.18;0.90;;;;;;;13.19;75.77;100730.72;5166432;28;20034;-73
2023/05/16 07:30:23;;;;;;;10.18;1.00;;;;;;;13.61;73.98;100737.53;5161897;28;20029;-72
2023/05/16 07:32:53;;;;;;;5.35;0.95;;;;;;;13.84;72.10;100733.88;5166338;28;20034;-73
2023/05/16 07:35:24;;;;;;;11.30;1.17;;;;;;;14.11;72.10;100724.72;5168566;28;20037;-73
2023/05/16 07:37:54;;;;;;;8.70;1.52;;;;;;;14.67;71.53;100738.63;5165485;28;20030;-73
2023/05/16 07:40:28;;;;;;;5.63;1.30;;;;;;;14.96;70.10;100733.59;5167033;28;20113;-74
2023/05/16 07:42:58;;;;;;;6.03;0.68;;;;;;;14.77;69.18;100738.06;5159979;28;20058;-74
2023/05/16 07:45:29;;;;;;;7.18;0.90;;;;;;;14.88;67.24;100736.59;5157450;28;20061;-74
2023/05/16 07:47:59;;;;;;;10.07;1.08;;;;;;;15.08;68.28;100739.09;5168863;28;20022;-73
2023/05/16 07:50:29;;;;;;;9.13;0.85;;;;;;;14.77;68.03;100740.72;5160045;28;20109;-74
2023/05/16 07:53:00;;;;;;;7.80;1.25;;;;;;;15.32;67.59;100740.50;5170280;28;20055;-73
2023/05/16 07:55:30;;;;;;;7.25;1.08;;;;;;;15.13;65.91;100747.59;5162375;28;20030;-74
2023/05/16 07:58:02;;;;;;;4.22;0.75;;;;;;;15.17;64.86;100743.03;5163293;28;20026;-73
2023/05/16 08:00:32;;;;;;;6.97;1.00;;;;;;;15.45;64.58;100743.31;5161131;28;20438;-75
2023/05/16 08:03:03;;;;;;;12.88;1.17;;;;;;;15.23;64.25;100740.94;5163322;28;20021;-73
2023/05/16 08:05:33;;;;;;;5.03;0.85;;;;;;;15.01;64.64;100747.38;5164779;28;20511;-74
2023/05/16 08:08:04;;;;;;;8.50;0.88;;;;;;;14.60;65.19;100759.09;5153874;28;20126;-73
2023/05/16 08:10:34;;;;;;;4.70;0.88;;;;;;;14.48;66.57;100758.84;5160248;28;20492;-73
2023/05/16 08:13:05;;;;;;;4.43;0.90;;;;;;;14.14;68.13;100761.34;5179326;28;20080;-73
2023/05/16 08:15:35;;;;;;;6.88;0.93;;;;;;;14.06;68.80;100758.25;5162407;28;20109;-72
2023/05/16 08:18:13;;;;;;;6.93;0.82;;;;;;;13.96;69.35;100767.47;5159541;28;20025;-72
2023/05/16 08:20:43;;;;;;;8.45;1.10;;;;;;;14.05;68.93;100761.81;5162507;28;20042;-70
2023/05/16 08:23:14;;;;;;;6.03;0.90;;;;;;;14.01;69.88;100765.47;5164929;28;20427;-73
2023/05/16 08:25:44;;;;;;;10.30;1.55;;;;;;;14.04;70.24;100765.31;5163424;28;20030;-73
2023/05/16 08:28:15;;;;;;;4.53;0.90;;;;;;;14.21;71.80;100768.06;5164499;28;20022;-72
2023/05/16 08:30:46;;;;;;;8.82;1.50;;;;;;;14.35;69.77;100763.88;5164378;28;20037;-72
2023/05/16 08:33:17;;;;;;;5.78;1.08;;;;;;;14.47;69.28;100759.78;5159782;28;20022;-73
2023/05/16 08:35:51;;;;;;;8.95;1.65;;;;;;;14.40;70.14;100753.97;5165324;28;20030;-73
2023/05/16 08:38:21;;;;;;;6.10;0.98;;;;;;;14.38;68.75;100758.44;5156163;28;20113;-73
2023/05/16 08:40:52;;;;;;;11.32;1.33;;;;;;;14.55;66.75;100758.50;5167370;28;20109;-73
2023/05/16 08:43:22;;;;;;;9.82;1.05;;;;;;;14.55;65.28;100758.50;5172042;28;20030;-73
2023/05/16 08:45:53;;;;;;;8.48;1.10;;;;;;;14.66;65.52;100766.72;5169185;28;20556;-73
2023/05/16 08:48:27;;;;;;;4.82;0.70;;;;;;;14.74;64.27;100758.44;5168503;28;20153;-72
2023/05/16 08:50:58;;;;;;;3.67;0.90;;;;;;;15.05;64.78;100755.03;5166794;28;20124;-72
2023/05/16 08:53:36;;;;;;;6.82;1.05;;;;;;;15.67;64.25;100750.00;5161813;28;20033;-72
2023/05/16 08:56:07;;;;;;;4.63;0.60;;;;;;;15.53;63.50;100751.69;5166895;28;20025;-73
2023/05/16 08:58:39;;;;;;;3.25;0.65;;;;;;;15.79;63.07;100749.38;5164309;28;20022;-73
2023/05/16 09:01:10;;;;;;;4.95;0.77;;;;;;;15.52;62.69;100745.56;5163673;28;20257;-73
2023/05/16 09:03:42;;;;;;;8.30;1.15;;;;;;;15.31;63.45;100757.22;5170171;28;20033;-73
2023/05/16 09:06:12;;;;;;;8.73;1.00;;;;;;;15.13;64.35;100747.59;5157908;28;20123;-72
2023/05/16 09:08:42;;;;;;;7.85;0.93;;;;;;;15.89;61.18;100752.34;5159026;28;20073;-72
2023/05/16 09:11:13;;;;;;;5.70;0.80;;;;;;;16.52;60.12;100743.53;5166185;28;20030;-72
2023/05/16 09:13:43;;;;;;;7.10;0.82;;;;;;;16.62;59.35;100742.91;5160690;28;20037;-71
2023/05/16 09:16:15;;;;;;;7.45;1.38;;;;;;;15.89;60.46;100750.53;5164718;28;20030;-72
2023/05/16 09:18:53;;;;;;;3.00;0.68;;;;;;;16.67;60.40;100746.13;5161350;28;20045;-73
2023/05/16 09:21:31;;;;;;;3.75;0.80;;;;;;;17.01;58.98;100740.59;5161375;28;20026;-73
2023/05/16 09:24:04;;;;;;;4.32;0.80;;;;;;;17.78;57.75;100739.34;5164978;28;20026;-73
2023/05/16 09:26:36;;;;;;;4.13;0.95;;;;;;;17.85;56.65;100736.22;5163626;28;20034;-73
2023/05/16 09:29:11;;;;;;;5.18;1.20;;;;;;;18.54;53.93;100729.09;5163705;28;20034;-73
2023/05/16 09:31:41;;;;;;;4.17;0.60;;;;;;;19.89;52.07;100736.47;5166210;28;20022;-73
2023/05/16 09:34:12;;;;;;;6.78;1.17;;;;;;;19.51;51.78;100743.63;5167539;28;20029;-73
2023/05/16 09:36:42;;;;;;;3.83;1.00;;;;;;;19.82;51.31;100732.53;5164124;28;20030;-73
2023/05/16 09:39:14;;;;;;;4.85;0.88;;;;;;;18.82;52.47;100737.78;5165779;28;20057;-73
2023/05/16 09:41:44;;;;;;;3.15;0.60;;;;;;;18.81;51.64;100735.22;5162427;28;20101;-75
2023/05/16 09:44:17;;;;;;;4.85;0.70;;;;;;;19.22;52.22;100742.13;5161920;28;20030;-73
2023/05/16 09:46:47;;;;;;;4.70;0.60;;;;;;;18.98;51.97;100738.47;5165307;28;20088;-74
2023/05/16 09:49:18;;;;;;;10.75;0.90;;;;;;;19.47;50.80;100731.50;5163025;28;20027;-74
2023/05/16 09:51:48;;;;;;;2.05;0.73;;;;;;;19.33;50.29;100728.13;5161642;28;20084;-72
2023/05/16 09:54:32;;;;;;;2.83;0.75;;;;;;;19.35;50.89;100728.88;5164856;28;20033;-73
2023/05/16 09:57:03;;;;;;;5.47;1.33;;;;;;;19.23;51.07;100741.16;5162793;28;20042;-73
2023/05/16 09:59:38;;;;;;;4.70;0.80;;;;;;;19.47;51.61;100742.09;5166745;28;20083;-72
2023/05/16 10:02:09;;;;;;;2.83;0.90;;;;;;;19.43;50.18;100735.31;5162166;28;20034;-73
2023/05/16 10:04:40;;;;;;;4.40;0.82;;;;;;;19.17;49.84;100738.94;5163515;28;20375;-75
2023/05/16 10:07:12;;;;;;;5.93;0.90;;;;;;;18.92;50.69;100730.91;5167143;28;20160;-72
2023/05/16 10:09:43;;;;;;;4.80;1.30;;;;;;;19.22;51.44;100733.31;5163545;28;20037;-72
2023/05/16 10:12:14;;;;;;;4.50;0.73;;;;;;;18.48;52.32;100742.75;5163963;28;20029;-73
2023/05/16 10:14:46;;;;;;;2.85;0.75;;;;;;;17.67;53.58;100750.59;5163560;28;20037;-73
2023/05/16 10:17:17;;;;;;;3.28;0.73;;;;;;;17.52;51.92;100745.41;5164354;28;20369;-72
2023/05/16 10:19:49;;;;;;;3.25;0.65;;;;;;;17.43;51.93;100751.25;5161860;28;20109;-73
2023/05/16 10:22:22;;;;;;;8.77;0.80;;;;;;;17.03;52.72;100755.41;5172588;28;20126;-73
2023/05/16 10:24:59;;;;;;;3.97;0.93;;;;;;;17.51;53.85;100746.34;5162974;28;20400;-73
2023/05/16 10:27:30;;;;;;;3.95;0.77;;;;;;;17.06;53.29;100762.28;5164382;28;20057;-73
2023/05/16 10:30:00;;;;;;;5.25;0.75;;;;;;;16.96;52.11;100756.69;5166491;28;20515;-73
2023/05/16 10:32:31;;;;;;;4.85;1.20;;;;;;;17.10;53.46;100763.78;5162650;28;20050;-73
2023/05/16 10:35:05;;;;;;;5.88;0.80;;;;;;;16.95;55.09;100754.16;5163163;28;20177;-73
2023/05/16 10:37:37;;;;;;;2.50;0.63;;;;;;;16.53;54.71;100764.53;5159659;28;20057;-73
2023/05/16 10:40:08;;;;;;;2.78;0.47;;;;;;;16.55;55.08;100765.28;5166298;28;20022;-73
2023/05/16 10:42:43;;;;;;;4.47;1.20;;;;;;;16.88;55.68;100755.44;5167531;28;20475;-73
2023/05/16 10:45:18;;;;;;;3.40;0.60;;;;;;;17.05;53.53;100753.53;5165943;28;20052;-72
2023/05/16 10:47:58;;;;;;;10.10;0.60;;;;;;;17.15;52.74;100756.47;5160294;28;20033;-72
2023/05/16 10:50:36;;;;;;;4.65;0.68;;;;;;;17.38;53.52;100761.25;5162164;28;20093;-72
2023/05/16 10:53:21;;;;;;;3.55;0.65;;;;;;;17.48;52.87;100754.47;5168416;28;20487;-73
2023/05/16 10:55:58;;;;;;;5.40;0.70;;;;;;;17.07;53.54;100762.22;5165293;28;20563;-73
2023/05/16 10:58:37;;;;;;;2.58;0.43;;;;;;;17.01;54.39;100772.28;5157799;28;20035;-73
2023/05/16 11:01:30;;;;;;;7.10;1.50;;;;;;;16.71;54.31;100774.03;5167798;28;20091;-73
2023/05/16 11:04:01;;;;;;;6.50;0.70;;;;;;;16.30;53.69;100786.06;5165499;28;20476;-73
2023/05/16 11:06:41;;;;;;;4.35;0.50;;;;;;;16.28;54.38;100784.44;5168241;28;20026;-73
2023/05/16 11:09:12;;;;;;;7.00;0.93;;;;;;;16.78;54.42;100773.59;5167883;28;20320;-73
2023/05/16 11:11:52;;;;;;;4.57;0.60;;;;;;;17.23;53.42;100768.28;5162352;28;20042;-72
2023/05/16 11:14:22;;;;;;;1.95;0.50;;;;;;;17.14;53.11;100767.97;5163639;28;20034;-73
2023/05/16 11:17:13;;;;;;;5.43;0.70;;;;;;;17.07;54.07;100770.13;5166268;28;20040;-72
2023/05/16 11:19:51;;;;;;;4.97;0.55;;;;;;;16.85;53.44;100780.25;5170615;28;20296;-72
2023/05/16 11:22:27;;;;;;;2.88;0.45;;;;;;;16.87;52.55;100783.66;5161487;28;20028;-73
2023/05/16 11:25:04;;;;;;;3.30;0.70;;;;;;;17.08;51.32;100778.88;5174743;28;20033;-74
2023/05/16 11:27:36;;;;;;;1.40;0.30;;;;;;;16.92;52.56;100772.78;5160453;28;20033;-71
2023/05/16 11:30:20;;;;;;;3.97;0.60;;;;;;;17.02;53.02;100776.63;5168876;28;20029;-74
2023/05/16 11:32:50;;;;;;;2.25;0.60;;;;;;;17.16;53.02;100776.66;5165160;28;20566;-74
2023/05/16 11:35:21;;;;;;;2.33;0.47;;;;;;;17.25;51.66;100770.81;5171970;28;20038;-73
2023/05/16 11:37:52;;;;;;;2.92;0.80;;;;;;;17.29;52.00;100761.78;5168154;28;20034;-73
2023/05/16 11:40:22;;;;;;;3.03;0.50;;;;;;;16.89;52.35;100767.69;5170236;28;20041;-73
2023/05/16 11:42:53;;;;;;;2.20;0.43;;;;;;;16.85;51.83;100774.97;5171095;28;20030;-74
2023/05/16 11:45:24;;;;;;;2.33;0.50;;;;;;;16.95;53.65;100762.09;5175114;28;20035;-73
2023/05/16 11:48:01;;;;;;;2.63;0.57;;;;;;;17.00;52.63;100770.56;5177214;28;20026;-73